sensor_id;sensor_type;location;lat;lon;timestamp;temperature;humidity
23815;DHT22;12088;53.078;8.720;2022-07-29T00:01:16;13.90;99.90
23815;DHT22;12088;53.078;8.720;2022-07-29T00:03:42;14.00;99.90
23815;DHT22;12088;53.078;8.720;2022-07-29T00:06:08;14.00;99.90
23815;DHT22;12088;53.078;8.720;2022-07-29T00:08:33;13.90;99.90
23815;DHT22;12088;53.078;8.720;2022-07-29T00:10:59;13.80;99.90
23815;DHT22;12088;53.078;8.720;2022-07-29T00:13:24;13.80;99.90
23815;DHT22;12088;53.078;8.720;2022-07-29T00:15:50;13.80;99.90
23815;DHT22;12088;53.078;8.720;2022-07-29T00:18:15;13.90;99.90
23815;DHT22;12088;53.078;8.720;2022-07-29T00:20:41;13.90;99.90
23815;DHT22;12088;53.078;8.720;2022-07-29T00:23:07;13.90;99.90
23815;DHT22;12088;53.078;8.720;2022-07-29T00:25:32;13.80;99.90
23815;DHT22;12088;53.078;8.720;2022-07-29T00:27:58;13.80;99.90
23815;DHT22;12088;53.078;8.720;2022-07-29T00:30:23;13.80;99.90
23815;DHT22;12088;53.078;8.720;2022-07-29T00:32:49;13.70;99.90
23815;DHT22;12088;53.078;8.720;2022-07-29T00:35:15;13.80;99.90
23815;DHT22;12088;53.078;8.720;2022-07-29T00:37:59;13.70;99.90
23815;DHT22;12088;53.078;8.720;2022-07-29T00:40:24;13.80;99.90
23815;DHT22;12088;53.078;8.720;2022-07-29T00:42:51;13.80;99.90
23815;DHT22;12088;53.078;8.720;2022-07-29T00:45:18;13.80;99.90
23815;DHT22;12088;53.078;8.720;2022-07-29T00:47:44;13.80;99.90
23815;DHT22;12088;53.078;8.720;2022-07-29T00:50:11;13.80;99.90
23815;DHT22;12088;53.078;8.720;2022-07-29T00:52:39;13.80;99.90
23815;DHT22;12088;53.078;8.720;2022-07-29T00:55:07;13.90;99.90
23815;DHT22;12088;53.078;8.720;2022-07-29T00:57:34;13.90;99.90
23815;DHT22;12088;53.078;8.720;2022-07-29T01:00:00;13.80;99.90
23815;DHT22;12088;53.078;8.720;2022-07-29T01:02:26;13.80;99.90
23815;DHT22;12088;53.078;8.720;2022-07-29T01:04:52;13.80;99.90
23815;DHT22;12088;53.078;8.720;2022-07-29T01:07:18;13.70;99.90
23815;DHT22;12088;53.078;8.720;2022-07-29T01:09:45;13.70;99.90
23815;DHT22;12088;53.078;8.720;2022-07-29T01:12:14;13.70;99.90
23815;DHT22;12088;53.078;8.720;2022-07-29T01:14:40;13.80;99.90
23815;DHT22;12088;53.078;8.720;2022-07-29T01:17:12;13.90;99.90
23815;DHT22;12088;53.078;8.720;2022-07-29T01:28:11;13.90;99.90
23815;DHT22;12088;53.078;8.720;2022-07-29T01:30:39;13.90;99.90
23815;DHT22;12088;53.078;8.720;2022-07-29T01:33:11;13.80;99.90
23815;DHT22;12088;53.078;8.720;2022-07-29T01:36:00;13.70;99.90
23815;DHT22;12088;53.078;8.720;2022-07-29T01:38:28;13.70;99.90
23815;DHT22;12088;53.078;8.720;2022-07-29T01:41:02;13.90;99.90
23815;DHT22;12088;53.078;8.720;2022-07-29T01:43:36;13.80;99.90
23815;DHT22;12088;53.078;8.720;2022-07-29T01:46:11;13.80;99.90
23815;DHT22;12088;53.078;8.720;2022-07-29T01:48:55;13.80;99.90
23815;DHT22;12088;53.078;8.720;2022-07-29T01:56:59;13.80;99.90
23815;DHT22;12088;53.078;8.720;2022-07-29T01:59:25;13.70;99.90
23815;DHT22;12088;53.078;8.720;2022-07-29T02:01:54;13.70;99.90
23815;DHT22;12088;53.078;8.720;2022-07-29T02:04:20;13.80;99.90
23815;DHT22;12088;53.078;8.720;2022-07-29T02:06:49;13.70;99.90
23815;DHT22;12088;53.078;8.720;2022-07-29T02:09:17;13.60;99.90
23815;DHT22;12088;53.078;8.720;2022-07-29T02:11:49;13.70;99.90
23815;DHT22;12088;53.078;8.720;2022-07-29T02:14:19;13.60;99.90
23815;DHT22;12088;53.078;8.720;2022-07-29T02:16:47;13.70;99.90
23815;DHT22;12088;53.078;8.720;2022-07-29T02:19:17;13.70;99.90
23815;DHT22;12088;53.078;8.720;2022-07-29T02:21:44;13.70;99.90
23815;DHT22;12088;53.078;8.720;2022-07-29T02:24:11;13.70;99.90
23815;DHT22;12088;53.078;8.720;2022-07-29T02:26:40;13.70;99.90
23815;DHT22;12088;53.078;8.720;2022-07-29T02:29:08;13.70;99.90
23815;DHT22;12088;53.078;8.720;2022-07-29T02:31:35;13.70;99.90
23815;DHT22;12088;53.078;8.720;2022-07-29T02:34:06;13.70;99.90
23815;DHT22;12088;53.078;8.720;2022-07-29T02:36:34;13.70;99.90
23815;DHT22;12088;53.078;8.720;2022-07-29T02:39:02;13.60;99.90
23815;DHT22;12088;53.078;8.720;2022-07-29T02:44:12;13.60;99.90
23815;DHT22;12088;53.078;8.720;2022-07-29T02:46:53;13.60;99.90
23815;DHT22;12088;53.078;8.720;2022-07-29T02:52:27;13.70;99.90
23815;DHT22;12088;53.078;8.720;2022-07-29T02:55:18;13.70;99.90
23815;DHT22;12088;53.078;8.720;2022-07-29T02:57:49;13.70;99.90
23815;DHT22;12088;53.078;8.720;2022-07-29T03:00:17;13.70;99.90
23815;DHT22;12088;53.078;8.720;2022-07-29T03:02:45;13.70;99.90
23815;DHT22;12088;53.078;8.720;2022-07-29T03:05:20;13.60;99.90
23815;DHT22;12088;53.078;8.720;2022-07-29T03:07:49;13.60;99.90
23815;DHT22;12088;53.078;8.720;2022-07-29T03:10:16;13.60;99.90
23815;DHT22;12088;53.078;8.720;2022-07-29T03:12:43;13.70;99.90
23815;DHT22;12088;53.078;8.720;2022-07-29T03:15:10;13.70;99.90
23815;DHT22;12088;53.078;8.720;2022-07-29T03:17:36;13.70;99.90
23815;DHT22;12088;53.078;8.720;2022-07-29T03:20:03;13.60;99.90
23815;DHT22;12088;53.078;8.720;2022-07-29T03:22:29;13.60;99.90
23815;DHT22;12088;53.078;8.720;2022-07-29T03:24:55;13.60;99.90
23815;DHT22;12088;53.078;8.720;2022-07-29T03:27:21;13.60;99.90
23815;DHT22;12088;53.078;8.720;2022-07-29T03:29:47;13.60;99.90
23815;DHT22;12088;53.078;8.720;2022-07-29T03:32:12;13.70;99.90
23815;DHT22;12088;53.078;8.720;2022-07-29T03:34:38;13.60;99.90
23815;DHT22;12088;53.078;8.720;2022-07-29T03:37:05;13.70;99.90
23815;DHT22;12088;53.078;8.720;2022-07-29T03:39:33;13.70;99.90
23815;DHT22;12088;53.078;8.720;2022-07-29T03:42:01;13.60;99.90
23815;DHT22;12088;53.078;8.720;2022-07-29T03:44:28;13.70;99.90
23815;DHT22;12088;53.078;8.720;2022-07-29T03:46:55;13.60;99.90
23815;DHT22;12088;53.078;8.720;2022-07-29T03:49:23;13.70;99.90
23815;DHT22;12088;53.078;8.720;2022-07-29T03:51:50;13.70;99.90
23815;DHT22;12088;53.078;8.720;2022-07-29T03:54:15;13.60;99.90
23815;DHT22;12088;53.078;8.720;2022-07-29T03:56:43;13.70;99.90
23815;DHT22;12088;53.078;8.720;2022-07-29T03:59:13;13.70;99.90
23815;DHT22;12088;53.078;8.720;2022-07-29T04:01:41;13.60;99.90
23815;DHT22;12088;53.078;8.720;2022-07-29T04:04:07;13.60;99.90
23815;DHT22;12088;53.078;8.720;2022-07-29T04:06:44;13.70;99.90
23815;DHT22;12088;53.078;8.720;2022-07-29T04:09:10;13.60;99.90
23815;DHT22;12088;53.078;8.720;2022-07-29T04:11:37;13.70;99.90
23815;DHT22;12088;53.078;8.720;2022-07-29T04:14:03;13.60;99.90
23815;DHT22;12088;53.078;8.720;2022-07-29T04:16:29;13.70;99.90
23815;DHT22;12088;53.078;8.720;2022-07-29T04:18:55;13.70;99.90
23815;DHT22;12088;53.078;8.720;2022-07-29T04:21:20;13.70;99.90
23815;DHT22;12088;53.078;8.720;2022-07-29T04:23:46;13.70;99.90
23815;DHT22;12088;53.078;8.720;2022-07-29T04:26:15;13.70;99.90
23815;DHT22;12088;53.078;8.720;2022-07-29T04:28:41;13.70;99.90
23815;DHT22;12088;53.078;8.720;2022-07-29T04:31:08;13.70;99.90
23815;DHT22;12088;53.078;8.720;2022-07-29T04:33:34;13.70;99.90
23815;DHT22;12088;53.078;8.720;2022-07-29T04:35:59;13.70;99.90
23815;DHT22;12088;53.078;8.720;2022-07-29T04:38:25;13.80;99.90
23815;DHT22;12088;53.078;8.720;2022-07-29T04:40:51;13.80;99.90
23815;DHT22;12088;53.078;8.720;2022-07-29T04:43:16;13.80;99.90
23815;DHT22;12088;53.078;8.720;2022-07-29T04:45:42;13.80;99.90
23815;DHT22;12088;53.078;8.720;2022-07-29T04:48:08;13.90;99.90
23815;DHT22;12088;53.078;8.720;2022-07-29T04:50:34;14.00;99.90
23815;DHT22;12088;53.078;8.720;2022-07-29T04:52:59;14.00;99.90
23815;DHT22;12088;53.078;8.720;2022-07-29T04:55:25;14.10;99.90
23815;DHT22;12088;53.078;8.720;2022-07-29T04:57:50;14.10;99.90
23815;DHT22;12088;53.078;8.720;2022-07-29T05:00:16;14.10;99.90
23815;DHT22;12088;53.078;8.720;2022-07-29T05:02:42;14.30;99.90
23815;DHT22;12088;53.078;8.720;2022-07-29T05:05:08;14.30;99.90
23815;DHT22;12088;53.078;8.720;2022-07-29T05:07:34;14.30;99.90
23815;DHT22;12088;53.078;8.720;2022-07-29T05:09:59;14.40;99.90
23815;DHT22;12088;53.078;8.720;2022-07-29T05:12:25;14.50;99.90
23815;DHT22;12088;53.078;8.720;2022-07-29T05:14:51;14.50;99.90
23815;DHT22;12088;53.078;8.720;2022-07-29T05:17:17;14.50;99.90
23815;DHT22;12088;53.078;8.720;2022-07-29T05:19:43;14.50;99.90
23815;DHT22;12088;53.078;8.720;2022-07-29T05:22:08;14.60;99.90
23815;DHT22;12088;53.078;8.720;2022-07-29T05:24:34;14.80;99.90
23815;DHT22;12088;53.078;8.720;2022-07-29T05:26:59;15.00;99.90
23815;DHT22;12088;53.078;8.720;2022-07-29T05:29:25;15.10;99.90
23815;DHT22;12088;53.078;8.720;2022-07-29T05:31:51;15.10;99.90
23815;DHT22;12088;53.078;8.720;2022-07-29T05:34:18;15.10;99.90
23815;DHT22;12088;53.078;8.720;2022-07-29T05:36:44;15.20;99.90
23815;DHT22;12088;53.078;8.720;2022-07-29T05:39:10;15.10;99.90
23815;DHT22;12088;53.078;8.720;2022-07-29T05:41:38;15.10;99.90
23815;DHT22;12088;53.078;8.720;2022-07-29T05:44:03;15.20;99.90
23815;DHT22;12088;53.078;8.720;2022-07-29T05:46:29;15.20;99.90
23815;DHT22;12088;53.078;8.720;2022-07-29T05:48:55;15.20;99.90
23815;DHT22;12088;53.078;8.720;2022-07-29T05:51:21;15.30;99.90
23815;DHT22;12088;53.078;8.720;2022-07-29T05:53:47;15.20;99.90
23815;DHT22;12088;53.078;8.720;2022-07-29T05:56:13;15.30;99.90
23815;DHT22;12088;53.078;8.720;2022-07-29T05:58:38;15.40;99.90
23815;DHT22;12088;53.078;8.720;2022-07-29T06:01:04;15.50;99.90
23815;DHT22;12088;53.078;8.720;2022-07-29T06:03:30;15.60;99.90
23815;DHT22;12088;53.078;8.720;2022-07-29T06:05:56;15.60;99.90
23815;DHT22;12088;53.078;8.720;2022-07-29T06:08:22;15.70;99.90
23815;DHT22;12088;53.078;8.720;2022-07-29T06:10:47;15.70;99.90
23815;DHT22;12088;53.078;8.720;2022-07-29T06:13:13;15.70;99.90
23815;DHT22;12088;53.078;8.720;2022-07-29T06:15:41;15.90;99.90
23815;DHT22;12088;53.078;8.720;2022-07-29T06:18:07;15.90;99.90
23815;DHT22;12088;53.078;8.720;2022-07-29T06:20:34;15.90;99.90
23815;DHT22;12088;53.078;8.720;2022-07-29T06:23:00;16.00;99.90
23815;DHT22;12088;53.078;8.720;2022-07-29T06:25:26;16.10;99.90
23815;DHT22;12088;53.078;8.720;2022-07-29T06:27:54;16.10;99.90
23815;DHT22;12088;53.078;8.720;2022-07-29T06:30:20;16.20;99.90
23815;DHT22;12088;53.078;8.720;2022-07-29T06:32:45;16.20;99.90
23815;DHT22;12088;53.078;8.720;2022-07-29T06:35:12;16.30;99.90
23815;DHT22;12088;53.078;8.720;2022-07-29T06:37:37;16.40;99.90
23815;DHT22;12088;53.078;8.720;2022-07-29T06:40:04;16.40;99.90
23815;DHT22;12088;53.078;8.720;2022-07-29T06:42:48;16.50;99.90
23815;DHT22;12088;53.078;8.720;2022-07-29T06:45:13;16.60;99.90
23815;DHT22;12088;53.078;8.720;2022-07-29T06:47:39;16.60;99.90
23815;DHT22;12088;53.078;8.720;2022-07-29T06:50:05;16.70;99.90
23815;DHT22;12088;53.078;8.720;2022-07-29T06:52:31;16.80;99.90
23815;DHT22;12088;53.078;8.720;2022-07-29T06:54:57;17.10;99.90
23815;DHT22;12088;53.078;8.720;2022-07-29T06:57:22;17.10;99.90
23815;DHT22;12088;53.078;8.720;2022-07-29T06:59:48;17.20;99.90
23815;DHT22;12088;53.078;8.720;2022-07-29T07:02:14;17.40;99.90
23815;DHT22;12088;53.078;8.720;2022-07-29T07:04:40;17.50;99.90
23815;DHT22;12088;53.078;8.720;2022-07-29T07:07:05;17.60;99.90
23815;DHT22;12088;53.078;8.720;2022-07-29T07:09:31;17.80;99.90
23815;DHT22;12088;53.078;8.720;2022-07-29T07:11:56;17.80;99.90
23815;DHT22;12088;53.078;8.720;2022-07-29T07:14:22;17.80;99.90
23815;DHT22;12088;53.078;8.720;2022-07-29T07:16:48;17.70;99.90
23815;DHT22;12088;53.078;8.720;2022-07-29T07:19:13;17.90;99.90
23815;DHT22;12088;53.078;8.720;2022-07-29T07:21:39;18.10;99.90
23815;DHT22;12088;53.078;8.720;2022-07-29T07:24:05;18.40;99.90
23815;DHT22;12088;53.078;8.720;2022-07-29T07:26:30;18.80;99.90
23815;DHT22;12088;53.078;8.720;2022-07-29T07:28:56;19.20;99.90
23815;DHT22;12088;53.078;8.720;2022-07-29T07:31:22;19.50;99.90
23815;DHT22;12088;53.078;8.720;2022-07-29T07:33:48;19.90;99.90
23815;DHT22;12088;53.078;8.720;2022-07-29T07:36:13;19.90;99.90
23815;DHT22;12088;53.078;8.720;2022-07-29T07:38:39;20.20;99.90
23815;DHT22;12088;53.078;8.720;2022-07-29T07:41:05;20.60;99.90
23815;DHT22;12088;53.078;8.720;2022-07-29T07:43:30;20.30;99.90
23815;DHT22;12088;53.078;8.720;2022-07-29T07:45:56;20.40;99.90
23815;DHT22;12088;53.078;8.720;2022-07-29T07:48:22;20.20;99.90
23815;DHT22;12088;53.078;8.720;2022-07-29T07:50:48;20.20;99.90
23815;DHT22;12088;53.078;8.720;2022-07-29T07:53:14;20.50;99.90
23815;DHT22;12088;53.078;8.720;2022-07-29T07:55:44;21.00;99.90
23815;DHT22;12088;53.078;8.720;2022-07-29T07:58:10;20.80;99.90
23815;DHT22;12088;53.078;8.720;2022-07-29T08:00:35;20.50;99.90
23815;DHT22;12088;53.078;8.720;2022-07-29T08:03:01;20.70;99.90
23815;DHT22;12088;53.078;8.720;2022-07-29T08:05:27;21.20;99.90
23815;DHT22;12088;53.078;8.720;2022-07-29T08:07:52;21.80;99.90
23815;DHT22;12088;53.078;8.720;2022-07-29T08:10:19;22.10;99.90
23815;DHT22;12088;53.078;8.720;2022-07-29T08:13:08;22.30;99.90
23815;DHT22;12088;53.078;8.720;2022-07-29T08:15:35;23.20;99.90
23815;DHT22;12088;53.078;8.720;2022-07-29T08:18:01;23.00;99.90
23815;DHT22;12088;53.078;8.720;2022-07-29T08:20:27;23.30;99.90
23815;DHT22;12088;53.078;8.720;2022-07-29T08:22:53;23.60;99.90
23815;DHT22;12088;53.078;8.720;2022-07-29T08:25:19;23.60;99.90
23815;DHT22;12088;53.078;8.720;2022-07-29T08:27:46;23.60;99.90
23815;DHT22;12088;53.078;8.720;2022-07-29T08:30:12;23.60;99.90
23815;DHT22;12088;53.078;8.720;2022-07-29T08:32:38;23.40;99.90
23815;DHT22;12088;53.078;8.720;2022-07-29T08:35:04;23.90;99.90
23815;DHT22;12088;53.078;8.720;2022-07-29T08:37:30;24.50;99.90
23815;DHT22;12088;53.078;8.720;2022-07-29T08:39:55;25.10;99.90
23815;DHT22;12088;53.078;8.720;2022-07-29T08:42:21;26.00;99.90
23815;DHT22;12088;53.078;8.720;2022-07-29T08:44:47;25.80;99.90
23815;DHT22;12088;53.078;8.720;2022-07-29T08:47:16;25.50;99.90
23815;DHT22;12088;53.078;8.720;2022-07-29T08:49:42;26.10;99.90
23815;DHT22;12088;53.078;8.720;2022-07-29T08:52:11;26.40;99.90
23815;DHT22;12088;53.078;8.720;2022-07-29T08:54:39;26.10;99.90
23815;DHT22;12088;53.078;8.720;2022-07-29T08:57:05;26.70;99.90
23815;DHT22;12088;53.078;8.720;2022-07-29T08:59:34;27.00;99.90
23815;DHT22;12088;53.078;8.720;2022-07-29T09:02:00;26.80;99.90
23815;DHT22;12088;53.078;8.720;2022-07-29T09:04:34;27.30;99.90
23815;DHT22;12088;53.078;8.720;2022-07-29T09:07:04;28.30;99.90
23815;DHT22;12088;53.078;8.720;2022-07-29T09:09:30;28.10;99.90
23815;DHT22;12088;53.078;8.720;2022-07-29T09:11:55;29.20;99.90
23815;DHT22;12088;53.078;8.720;2022-07-29T09:14:21;29.80;99.90
23815;DHT22;12088;53.078;8.720;2022-07-29T09:16:55;29.80;99.90
23815;DHT22;12088;53.078;8.720;2022-07-29T09:19:28;29.60;99.90
23815;DHT22;12088;53.078;8.720;2022-07-29T09:21:56;28.90;99.90
23815;DHT22;12088;53.078;8.720;2022-07-29T09:26:51;29.90;99.90
23815;DHT22;12088;53.078;8.720;2022-07-29T09:29:22;30.20;99.90
23815;DHT22;12088;53.078;8.720;2022-07-29T09:31:51;29.90;99.90
23815;DHT22;12088;53.078;8.720;2022-07-29T09:34:22;30.00;99.90
23815;DHT22;12088;53.078;8.720;2022-07-29T09:36:50;29.60;99.90
23815;DHT22;12088;53.078;8.720;2022-07-29T09:39:31;28.70;99.90
23815;DHT22;12088;53.078;8.720;2022-07-29T09:41:59;28.20;99.90
23815;DHT22;12088;53.078;8.720;2022-07-29T09:44:25;27.50;99.90
23815;DHT22;12088;53.078;8.720;2022-07-29T09:47:02;27.20;99.90
23815;DHT22;12088;53.078;8.720;2022-07-29T09:49:36;26.70;99.90
23815;DHT22;12088;53.078;8.720;2022-07-29T09:52:15;26.40;99.90
23815;DHT22;12088;53.078;8.720;2022-07-29T09:54:40;26.10;99.90
23815;DHT22;12088;53.078;8.720;2022-07-29T09:57:08;26.00;99.90
23815;DHT22;12088;53.078;8.720;2022-07-29T09:59:38;25.80;99.90
23815;DHT22;12088;53.078;8.720;2022-07-29T10:02:12;25.80;99.90
23815;DHT22;12088;53.078;8.720;2022-07-29T10:04:42;26.40;99.90
23815;DHT22;12088;53.078;8.720;2022-07-29T10:07:08;26.90;99.90
23815;DHT22;12088;53.078;8.720;2022-07-29T10:09:34;26.70;99.90
23815;DHT22;12088;53.078;8.720;2022-07-29T10:12:12;26.40;99.90
23815;DHT22;12088;53.078;8.720;2022-07-29T10:14:41;26.30;99.90
23815;DHT22;12088;53.078;8.720;2022-07-29T10:17:09;26.20;99.90
23815;DHT22;12088;53.078;8.720;2022-07-29T10:19:36;26.30;99.90
23815;DHT22;12088;53.078;8.720;2022-07-29T10:22:06;26.20;99.90
23815;DHT22;12088;53.078;8.720;2022-07-29T10:24:32;26.20;99.90
23815;DHT22;12088;53.078;8.720;2022-07-29T10:27:01;26.10;99.90
23815;DHT22;12088;53.078;8.720;2022-07-29T10:29:29;25.90;99.90
23815;DHT22;12088;53.078;8.720;2022-07-29T10:32:22;26.30;99.90
23815;DHT22;12088;53.078;8.720;2022-07-29T10:35:21;26.80;99.90
23815;DHT22;12088;53.078;8.720;2022-07-29T10:38:21;27.60;99.90
23815;DHT22;12088;53.078;8.720;2022-07-29T10:44:07;29.00;99.90
23815;DHT22;12088;53.078;8.720;2022-07-29T10:46:36;30.00;99.90
23815;DHT22;12088;53.078;8.720;2022-07-29T10:57:30;32.60;99.20
23815;DHT22;12088;53.078;8.720;2022-07-29T11:07:31;34.10;97.30
23815;DHT22;12088;53.078;8.720;2022-07-29T11:15:10;33.70;92.60
23815;DHT22;12088;53.078;8.720;2022-07-29T11:23:00;33.10;94.00
23815;DHT22;12088;53.078;8.720;2022-07-29T11:25:26;34.00;92.40
23815;DHT22;12088;53.078;8.720;2022-07-29T11:27:54;34.40;92.50
23815;DHT22;12088;53.078;8.720;2022-07-29T11:30:53;34.60;93.10
23815;DHT22;12088;53.078;8.720;2022-07-29T11:33:30;35.20;91.70
23815;DHT22;12088;53.078;8.720;2022-07-29T11:36:10;34.20;90.30
23815;DHT22;12088;53.078;8.720;2022-07-29T11:38:36;32.20;90.30
23815;DHT22;12088;53.078;8.720;2022-07-29T11:41:28;30.70;93.20
23815;DHT22;12088;53.078;8.720;2022-07-29T11:43:55;29.90;93.40
23815;DHT22;12088;53.078;8.720;2022-07-29T11:46:47;29.50;94.90
23815;DHT22;12088;53.078;8.720;2022-07-29T11:49:22;29.50;95.30
23815;DHT22;12088;53.078;8.720;2022-07-29T11:51:56;29.60;94.80
23815;DHT22;12088;53.078;8.720;2022-07-29T11:54:25;28.90;96.40
23815;DHT22;12088;53.078;8.720;2022-07-29T11:56:54;28.50;97.00
23815;DHT22;12088;53.078;8.720;2022-07-29T11:59:21;28.10;96.30
23815;DHT22;12088;53.078;8.720;2022-07-29T12:01:57;28.00;97.00
23815;DHT22;12088;53.078;8.720;2022-07-29T12:04:24;27.60;96.30
23815;DHT22;12088;53.078;8.720;2022-07-29T12:06:50;27.30;98.10
23815;DHT22;12088;53.078;8.720;2022-07-29T12:09:17;27.30;97.60
23815;DHT22;12088;53.078;8.720;2022-07-29T12:11:44;27.00;97.80
23815;DHT22;12088;53.078;8.720;2022-07-29T12:14:27;26.90;97.60
23815;DHT22;12088;53.078;8.720;2022-07-29T12:16:53;26.80;97.50
23815;DHT22;12088;53.078;8.720;2022-07-29T12:19:21;26.80;98.90
23815;DHT22;12088;53.078;8.720;2022-07-29T12:21:53;26.80;96.40
23815;DHT22;12088;53.078;8.720;2022-07-29T12:24:20;26.60;99.90
23815;DHT22;12088;53.078;8.720;2022-07-29T12:26:59;26.90;98.90
23815;DHT22;12088;53.078;8.720;2022-07-29T12:29:26;27.10;98.40
23815;DHT22;12088;53.078;8.720;2022-07-29T12:31:53;26.80;98.50
23815;DHT22;12088;53.078;8.720;2022-07-29T12:34:22;26.80;99.00
23815;DHT22;12088;53.078;8.720;2022-07-29T12:36:48;26.80;99.90
23815;DHT22;12088;53.078;8.720;2022-07-29T12:39:16;26.90;99.90
23815;DHT22;12088;53.078;8.720;2022-07-29T12:41:43;26.90;98.20
23815;DHT22;12088;53.078;8.720;2022-07-29T12:44:09;26.80;97.80
23815;DHT22;12088;53.078;8.720;2022-07-29T12:46:35;26.70;98.30
23815;DHT22;12088;53.078;8.720;2022-07-29T12:49:01;27.10;98.40
23815;DHT22;12088;53.078;8.720;2022-07-29T12:51:37;27.30;98.50
23815;DHT22;12088;53.078;8.720;2022-07-29T12:54:10;27.50;97.80
23815;DHT22;12088;53.078;8.720;2022-07-29T12:56:37;27.80;98.50
23815;DHT22;12088;53.078;8.720;2022-07-29T12:59:16;28.10;97.90
23815;DHT22;12088;53.078;8.720;2022-07-29T13:01:43;28.10;95.40
23815;DHT22;12088;53.078;8.720;2022-07-29T13:04:09;28.10;95.20
23815;DHT22;12088;53.078;8.720;2022-07-29T13:06:43;27.70;97.20
23815;DHT22;12088;53.078;8.720;2022-07-29T13:09:11;27.70;97.10
23815;DHT22;12088;53.078;8.720;2022-07-29T13:14:12;28.00;96.30
23815;DHT22;12088;53.078;8.720;2022-07-29T13:17:08;28.40;97.40
23815;DHT22;12088;53.078;8.720;2022-07-29T13:19:39;28.00;96.30
23815;DHT22;12088;53.078;8.720;2022-07-29T13:22:09;27.70;96.90
23815;DHT22;12088;53.078;8.720;2022-07-29T13:25:06;27.40;97.10
23815;DHT22;12088;53.078;8.720;2022-07-29T13:27:33;27.20;96.70
23815;DHT22;12088;53.078;8.720;2022-07-29T13:30:02;27.30;98.10
23815;DHT22;12088;53.078;8.720;2022-07-29T13:32:29;27.00;98.10
23815;DHT22;12088;53.078;8.720;2022-07-29T13:35:01;26.80;98.40
23815;DHT22;12088;53.078;8.720;2022-07-29T13:37:28;26.50;99.10
23815;DHT22;12088;53.078;8.720;2022-07-29T13:39:58;26.40;98.00
23815;DHT22;12088;53.078;8.720;2022-07-29T13:42:24;26.30;99.20
23815;DHT22;12088;53.078;8.720;2022-07-29T13:44:50;26.20;98.60
23815;DHT22;12088;53.078;8.720;2022-07-29T13:47:20;26.20;98.40
23815;DHT22;12088;53.078;8.720;2022-07-29T13:49:47;26.20;99.80
23815;DHT22;12088;53.078;8.720;2022-07-29T13:52:12;25.80;98.90
23815;DHT22;12088;53.078;8.720;2022-07-29T13:54:38;25.70;99.90
23815;DHT22;12088;53.078;8.720;2022-07-29T13:57:04;25.70;99.60
23815;DHT22;12088;53.078;8.720;2022-07-29T13:59:30;25.70;99.20
23815;DHT22;12088;53.078;8.720;2022-07-29T14:01:56;25.50;99.60
23815;DHT22;12088;53.078;8.720;2022-07-29T14:04:22;25.50;99.90
23815;DHT22;12088;53.078;8.720;2022-07-29T14:06:50;25.70;99.90
23815;DHT22;12088;53.078;8.720;2022-07-29T14:09:15;25.50;99.80
23815;DHT22;12088;53.078;8.720;2022-07-29T14:11:41;25.80;99.90
23815;DHT22;12088;53.078;8.720;2022-07-29T14:14:07;25.90;99.90
23815;DHT22;12088;53.078;8.720;2022-07-29T14:16:32;25.90;99.90
23815;DHT22;12088;53.078;8.720;2022-07-29T14:18:58;25.80;99.90
23815;DHT22;12088;53.078;8.720;2022-07-29T14:21:23;25.80;99.90
23815;DHT22;12088;53.078;8.720;2022-07-29T14:23:49;25.60;99.90
23815;DHT22;12088;53.078;8.720;2022-07-29T14:26:15;25.70;99.90
23815;DHT22;12088;53.078;8.720;2022-07-29T14:28:40;25.60;99.90
23815;DHT22;12088;53.078;8.720;2022-07-29T14:31:06;25.60;99.90
23815;DHT22;12088;53.078;8.720;2022-07-29T14:33:31;25.70;99.90
23815;DHT22;12088;53.078;8.720;2022-07-29T14:35:57;25.70;99.90
23815;DHT22;12088;53.078;8.720;2022-07-29T14:38:23;25.70;99.90
23815;DHT22;12088;53.078;8.720;2022-07-29T14:40:49;25.40;99.90
23815;DHT22;12088;53.078;8.720;2022-07-29T14:43:14;25.40;99.90
23815;DHT22;12088;53.078;8.720;2022-07-29T14:45:40;25.40;99.90
23815;DHT22;12088;53.078;8.720;2022-07-29T14:48:06;25.30;99.90
23815;DHT22;12088;53.078;8.720;2022-07-29T14:50:32;25.10;99.90
23815;DHT22;12088;53.078;8.720;2022-07-29T14:52:59;25.10;99.90
23815;DHT22;12088;53.078;8.720;2022-07-29T14:55:25;24.90;99.90
23815;DHT22;12088;53.078;8.720;2022-07-29T14:57:50;24.70;99.90
23815;DHT22;12088;53.078;8.720;2022-07-29T15:00:17;24.40;99.90
23815;DHT22;12088;53.078;8.720;2022-07-29T15:02:42;24.30;99.90
23815;DHT22;12088;53.078;8.720;2022-07-29T15:05:08;24.20;99.90
23815;DHT22;12088;53.078;8.720;2022-07-29T15:07:34;24.10;99.90
23815;DHT22;12088;53.078;8.720;2022-07-29T15:09:59;24.00;99.90
23815;DHT22;12088;53.078;8.720;2022-07-29T15:12:25;24.00;99.90
23815;DHT22;12088;53.078;8.720;2022-07-29T15:14:50;23.90;99.90
23815;DHT22;12088;53.078;8.720;2022-07-29T15:17:16;23.90;99.90
23815;DHT22;12088;53.078;8.720;2022-07-29T15:19:42;23.80;99.90
23815;DHT22;12088;53.078;8.720;2022-07-29T15:22:07;23.70;99.90
23815;DHT22;12088;53.078;8.720;2022-07-29T15:24:33;23.60;99.90
23815;DHT22;12088;53.078;8.720;2022-07-29T15:26:59;23.50;99.90
23815;DHT22;12088;53.078;8.720;2022-07-29T15:29:25;23.50;99.90
23815;DHT22;12088;53.078;8.720;2022-07-29T15:31:50;23.50;99.90
23815;DHT22;12088;53.078;8.720;2022-07-29T15:34:16;23.50;99.90
23815;DHT22;12088;53.078;8.720;2022-07-29T15:36:42;23.50;99.90
23815;DHT22;12088;53.078;8.720;2022-07-29T15:39:07;23.60;99.90
23815;DHT22;12088;53.078;8.720;2022-07-29T15:41:34;23.60;99.90
23815;DHT22;12088;53.078;8.720;2022-07-29T15:44:00;23.70;99.90
23815;DHT22;12088;53.078;8.720;2022-07-29T15:46:25;23.80;99.90
23815;DHT22;12088;53.078;8.720;2022-07-29T15:49:09;23.80;99.90
23815;DHT22;12088;53.078;8.720;2022-07-29T15:51:35;24.00;99.90
23815;DHT22;12088;53.078;8.720;2022-07-29T15:54:02;24.00;99.90
23815;DHT22;12088;53.078;8.720;2022-07-29T15:56:28;24.10;99.90
23815;DHT22;12088;53.078;8.720;2022-07-29T15:58:54;24.20;99.90
23815;DHT22;12088;53.078;8.720;2022-07-29T16:01:19;24.30;99.90
23815;DHT22;12088;53.078;8.720;2022-07-29T16:03:45;24.30;99.90
23815;DHT22;12088;53.078;8.720;2022-07-29T16:06:10;24.30;99.90
23815;DHT22;12088;53.078;8.720;2022-07-29T16:08:36;24.20;99.90
23815;DHT22;12088;53.078;8.720;2022-07-29T16:11:02;24.10;99.90
23815;DHT22;12088;53.078;8.720;2022-07-29T16:13:27;24.10;99.90
23815;DHT22;12088;53.078;8.720;2022-07-29T16:15:53;24.00;99.90
23815;DHT22;12088;53.078;8.720;2022-07-29T16:18:18;23.90;99.90
23815;DHT22;12088;53.078;8.720;2022-07-29T16:20:44;23.80;99.90
23815;DHT22;12088;53.078;8.720;2022-07-29T16:23:10;23.70;99.90
23815;DHT22;12088;53.078;8.720;2022-07-29T16:25:37;23.60;99.90
23815;DHT22;12088;53.078;8.720;2022-07-29T16:28:04;23.60;99.90
23815;DHT22;12088;53.078;8.720;2022-07-29T16:30:30;23.50;99.90